Time;durP1;ratioP1;P1;durP2;ratioP2;P2;SDS_P1;SDS_P2;PMS_P1;PMS_P2;Temp;Humidity;BMP_temperature;BMP_pressure;BME280_temperature;BME280_humidity;BME280_pressure;Samples;Min_cycle;Max_cycle;Signal;HPM_P1;HPM_P2
2023/04/05 00:01:07;;;;;;;7.05;6.03;;;;;;;2.38;94.23;102409.81;5027361;28;20490;-72
2023/04/05 00:03:34;;;;;;;7.90;5.95;;;;;;;2.34;93.77;102417.38;5012834;28;20091;-68
2023/04/05 00:06:01;;;;;;;8.45;6.50;;;;;;;2.27;93.71;102411.63;5005242;28;20397;-69
2023/04/05 00:08:27;;;;;;;7.60;6.40;;;;;;;2.26;94.38;102403.66;5021471;28;20072;-72
2023/04/05 00:10:53;;;;;;;8.32;6.18;;;;;;;2.24;94.72;102413.78;4994912;28;20022;-72
2023/04/05 00:13:20;;;;;;;7.68;5.95;;;;;;;2.19;95.00;102411.47;5008822;28;20024;-72
2023/04/05 00:15:48;;;;;;;7.20;6.13;;;;;;;2.17;95.54;102410.75;5020118;28;20049;-67
2023/04/05 00:18:20;;;;;;;7.93;6.43;;;;;;;2.16;95.48;102419.03;4991883;28;20465;-72
2023/04/05 00:20:55;;;;;;;7.90;5.88;;;;;;;2.08;95.14;102409.75;5003442;28;20037;-71
2023/04/05 00:23:21;;;;;;;7.45;6.03;;;;;;;2.04;95.45;102413.72;5012082;28;20029;-69
2023/04/05 00:25:46;;;;;;;7.30;5.47;;;;;;;1.99;95.46;102402.41;5021505;28;20076;-66
2023/04/05 00:28:12;;;;;;;6.90;6.10;;;;;;;1.95;95.34;102400.13;4979060;28;20022;-70
2023/04/05 00:30:38;;;;;;;7.88;5.75;;;;;;;1.88;95.25;102407.09;5002892;28;20049;-65
2023/04/05 00:33:03;;;;;;;7.30;5.57;;;;;;;1.83;95.72;102396.66;5002956;28;20049;-72
2023/04/05 00:35:29;;;;;;;8.25;6.03;;;;;;;1.80;95.33;102394.19;5006146;28;20113;-65
2023/04/05 00:37:55;;;;;;;7.65;6.60;;;;;;;1.74;94.97;102392.03;4989392;28;20030;-62
2023/04/05 00:40:21;;;;;;;7.55;6.00;;;;;;;1.70;95.62;102390.59;5026539;28;20018;-68
2023/04/05 00:42:46;;;;;;;7.55;6.57;;;;;;;1.64;95.83;102385.72;5014457;28;20401;-72
2023/04/05 00:45:12;;;;;;;9.07;6.30;;;;;;;1.62;95.64;102401.22;5006588;28;20432;-70
2023/04/05 00:47:40;;;;;;;7.47;6.43;;;;;;;1.60;95.73;102386.97;5004328;28;20038;-72
2023/04/05 00:50:07;;;;;;;8.00;6.00;;;;;;;1.51;96.47;102386.78;5006250;28;20037;-63
2023/04/05 00:52:33;;;;;;;8.00;6.43;;;;;;;1.50;97.50;102387.78;5003891;28;20037;-71
2023/04/05 00:54:58;;;;;;;6.97;6.07;;;;;;;1.47;97.69;102388.06;4991719;28;20022;-61
2023/04/05 00:57:25;;;;;;;7.53;5.95;;;;;;;1.44;97.69;102379.34;4995306;28;20697;-71
2023/04/05 00:59:50;;;;;;;7.40;6.20;;;;;;;1.44;98.01;102382.91;5004360;28;20346;-72
2023/04/05 01:02:30;;;;;;;8.27;6.32;;;;;;;1.42;98.05;102393.00;5005417;28;20075;-69
2023/04/05 01:05:01;;;;;;;7.30;5.82;;;;;;;1.36;98.10;102388.09;5005887;28;20037;-67
2023/04/05 01:07:49;;;;;;;8.18;6.60;;;;;;;1.34;97.94;102394.66;5005284;28;20033;-72
2023/04/05 01:10:16;;;;;;;;;;;;;;;1.39;94.80;102389.69;4971432;28;20066;-65
2023/04/05 01:12:43;;;;;;;8.85;6.15;;;;;;;1.25;96.67;102389.03;5003108;28;19917;-72
2023/04/05 01:15:08;;;;;;;7.85;6.18;;;;;;;1.22;97.18;102383.06;5008057;28;20030;-74
2023/04/05 01:17:37;;;;;;;7.20;6.30;;;;;;;1.18;97.11;102382.44;4999555;28;20026;-74
2023/04/05 01:20:09;;;;;;;8.38;6.20;;;;;;;1.15;97.03;102376.44;4989128;28;20393;-74
2023/04/05 01:23:21;;;;;;;8.30;7.03;;;;;;;1.18;96.83;102381.59;4970410;28;20030;-75
2023/04/05 01:26:08;;;;;;;8.52;6.43;;;;;;;1.17;96.76;102382.59;4997945;28;20034;-74
2023/04/05 01:28:57;;;;;;;8.50;6.40;;;;;;;1.17;96.80;102374.47;4994156;28;20113;-70
2023/04/05 01:31:31;;;;;;;7.80;6.60;;;;;;;1.11;96.70;102373.13;4981335;28;20034;-68
2023/04/05 01:34:07;;;;;;;7.90;6.28;;;;;;;1.07;96.46;102365.44;5009063;28;20511;-74
2023/04/05 01:36:49;;;;;;;7.25;6.30;;;;;;;1.09;96.93;102363.44;5009585;28;20041;-75
2023/04/05 01:39:18;;;;;;;7.38;6.25;;;;;;;1.02;97.15;102357.69;4975908;28;20401;-74
2023/04/05 01:41:43;;;;;;;8.10;6.40;;;;;;;0.97;96.95;102362.66;5008629;28;20545;-74
2023/04/05 01:44:08;;;;;;;7.18;6.10;;;;;;;0.96;98.47;102358.19;5007540;28;20042;-65
2023/04/05 01:46:33;;;;;;;8.63;6.55;;;;;;;0.95;98.88;102364.59;5002974;28;20058;-70
2023/04/05 01:48:59;;;;;;;7.88;6.22;;;;;;;0.93;99.30;102359.34;4990160;28;20027;-71
2023/04/05 01:51:25;;;;;;;8.05;6.18;;;;;;;0.90;99.03;102353.31;5000124;28;20125;-73
2023/04/05 01:53:50;;;;;;;9.27;6.75;;;;;;;0.87;99.11;102357.16;5007876;28;20025;-73
2023/04/05 01:56:16;;;;;;;8.27;6.05;;;;;;;0.86;99.91;102355.41;5003900;28;20033;-75
2023/04/05 01:58:41;;;;;;;7.60;6.65;;;;;;;0.85;100.00;102361.81;5008635;28;20087;-74
2023/04/05 02:01:06;;;;;;;7.50;6.25;;;;;;;0.86;100.00;102351.84;5005795;28;20067;-74
2023/04/05 02:03:32;;;;;;;6.80;5.65;;;;;;;0.84;100.00;102346.59;5008726;28;20102;-70
2023/04/05 02:05:57;;;;;;;7.05;5.95;;;;;;;0.80;100.00;102344.28;5008920;28;20125;-73
2023/04/05 02:08:22;;;;;;;8.02;6.50;;;;;;;0.80;100.00;102355.09;5006711;28;20033;-74
2023/04/05 02:10:48;;;;;;;7.25;6.05;;;;;;;0.75;100.00;102341.97;4997203;28;20061;-68
2023/04/05 02:13:13;;;;;;;6.80;5.88;;;;;;;0.72;100.00;102342.22;4988864;28;20405;-74
2023/04/05 02:15:39;;;;;;;7.47;6.05;;;;;;;0.72;100.00;102344.94;4994528;28;20057;-74
2023/04/05 02:18:04;;;;;;;7.10;6.13;;;;;;;0.65;100.00;102341.00;4996091;28;20041;-75
2023/04/05 02:20:29;;;;;;;8.60;6.80;;;;;;;0.63;100.00;102341.16;4988291;28;20062;-67
2023/04/05 02:22:55;;;;;;;7.72;6.50;;;;;;;0.60;100.00;102338.69;4998092;28;20035;-73
2023/04/05 02:25:21;;;;;;;8.38;6.57;;;;;;;0.60;100.00;102343.25;4987478;28;20026;-74
2023/04/05 02:27:47;;;;;;;6.50;5.60;;;;;;;0.56;100.00;102336.38;5009221;28;20022;-70
2023/04/05 02:30:13;;;;;;;7.38;6.30;;;;;;;0.52;100.00;102344.75;4990701;28;20825;-68
2023/04/05 02:32:41;;;;;;;9.57;7.35;;;;;;;0.47;100.00;102338.88;5001065;28;20062;-72
2023/04/05 02:35:07;;;;;;;8.32;6.65;;;;;;;0.45;100.00;102335.44;5069272;23;20084;-70
2023/04/05 02:37:32;;;;;;;7.88;6.80;;;;;;;0.43;100.00;102334.72;5063917;28;20525;-71
2023/04/05 02:39:58;;;;;;;8.43;6.72;;;;;;;0.41;100.00;102338.53;5066893;28;20073;-72
2023/04/05 02:42:23;;;;;;;8.02;6.97;;;;;;;0.36;100.00;102335.38;5067505;28;20420;-70
2023/04/05 02:44:48;;;;;;;9.32;7.00;;;;;;;0.34;100.00;102330.06;5067288;28;20112;-68
2023/04/05 02:47:20;;;;;;;8.18;7.35;;;;;;;0.30;100.00;102333.16;5067044;28;20474;-68
2023/04/05 02:49:45;;;;;;;8.65;7.13;;;;;;;0.28;100.00;102327.03;5067558;28;20447;-72
2023/04/05 02:52:10;;;;;;;7.68;6.75;;;;;;;0.28;100.00;102332.44;5066262;28;20108;-68
2023/04/05 02:54:35;;;;;;;7.95;6.38;;;;;;;0.25;100.00;102331.72;5065951;28;20378;-62
2023/04/05 02:57:01;;;;;;;9.50;7.43;;;;;;;0.25;100.00;102328.13;5067430;28;20032;-68
2023/04/05 02:59:26;;;;;;;8.70;7.72;;;;;;;0.28;100.00;102324.31;5066809;28;20028;-71
2023/04/05 03:01:51;;;;;;;8.20;7.15;;;;;;;0.29;100.00;102320.63;5067649;28;20029;-67
2023/04/05 03:04:17;;;;;;;8.82;7.00;;;;;;;0.31;100.00;102316.84;5048599;28;20028;-72
2023/04/05 03:06:45;;;;;;;8.63;6.93;;;;;;;0.31;100.00;102316.84;5066745;28;20489;-71
2023/04/05 03:09:10;;;;;;;9.05;6.72;;;;;;;0.32;100.00;102318.53;5066187;28;20032;-69
2023/04/05 03:11:35;;;;;;;9.65;7.22;;;;;;;0.27;100.00;102315.38;5067476;28;20024;-62
2023/04/05 03:14:01;;;;;;;7.72;6.93;;;;;;;0.25;100.00;102310.09;5067722;28;20028;-69
2023/04/05 03:16:27;;;;;;;8.57;7.35;;;;;;;0.22;100.00;102309.47;5067229;28;20033;-72
2023/04/05 03:18:52;;;;;;;8.00;7.20;;;;;;;0.16;100.00;102302.75;5066266;28;20040;-61
2023/04/05 03:21:18;;;;;;;10.45;7.50;;;;;;;0.12;100.00;102305.84;5066440;28;20382;-68
2023/04/05 03:23:45;;;;;;;8.38;6.97;;;;;;;0.11;100.00;102294.16;5064247;28;20028;-67
2023/04/05 03:26:11;;;;;;;7.83;6.83;;;;;;;0.12;100.00;102300.44;5067442;28;20478;-71
2023/04/05 03:28:37;;;;;;;8.40;7.25;;;;;;;0.11;100.00;102296.00;5065884;28;20545;-67
2023/04/05 03:31:02;;;;;;;9.52;6.95;;;;;;;0.10;100.00;102296.97;5067351;28;20024;-72
2023/04/05 03:33:27;;;;;;;7.57;6.60;;;;;;;0.08;100.00;102293.56;5066699;28;20363;-74
2023/04/05 03:35:53;;;;;;;9.00;7.68;;;;;;;0.06;100.00;102306.34;5065151;28;20045;-73
2023/04/05 03:38:18;;;;;;;8.95;7.20;;;;;;;0.02;100.00;102296.78;5063427;28;20029;-69
2023/04/05 03:40:43;;;;;;;7.85;6.72;;;;;;;-0.02;100.00;102299.72;5064124;28;20033;-69
2023/04/05 03:43:09;;;;;;;9.00;7.25;;;;;;;-0.07;100.00;102293.84;5066508;28;20047;-74
2023/04/05 03:45:34;;;;;;;9.32;7.25;;;;;;;-0.12;100.00;102300.59;5066864;28;20054;-73
2023/04/05 03:48:00;;;;;;;9.20;7.30;;;;;;;-0.16;100.00;102297.28;5066673;28;20394;-74
2023/04/05 03:50:25;;;;;;;8.98;7.13;;;;;;;-0.17;100.00;102297.41;5064791;28;20841;-72
2023/04/05 03:52:51;;;;;;;8.80;7.70;;;;;;;-0.16;100.00;102294.56;5066725;28;20088;-70
2023/04/05 03:55:17;;;;;;;9.25;8.00;;;;;;;-0.18;100.00;102293.84;5064409;28;20105;-69
2023/04/05 03:57:42;;;;;;;8.85;7.75;;;;;;;-0.22;100.00;102281.59;5066516;28;20101;-74
2023/04/05 04:00:13;;;;;;;10.07;7.90;;;;;;;-0.23;100.00;102290.69;5048456;28;20040;-74
2023/04/05 04:02:43;;;;;;;9.65;8.18;;;;;;;-0.26;100.00;102289.06;5064050;28;20129;-70
2023/04/05 04:05:09;;;;;;;9.05;7.82;;;;;;;-0.27;100.00;102290.06;5065873;28;20055;-74
2023/04/05 04:07:35;;;;;;;10.10;7.70;;;;;;;-0.25;100.00;102281.84;5065364;28;20453;-65
2023/04/05 04:10:00;;;;;;;10.38;7.57;;;;;;;-0.28;100.00;102277.53;5066672;28;20143;-70
2023/04/05 04:12:26;;;;;;;9.07;7.78;;;;;;;-0.28;100.00;102288.34;5066029;28;20024;-72
2023/04/05 04:14:51;;;;;;;9.48;7.75;;;;;;;-0.30;100.00;102297.56;5066866;28;20106;-73
2023/04/05 04:17:30;;;;;;;8.02;7.10;;;;;;;-0.31;100.00;102282.31;5062109;28;20360;-74
2023/04/05 04:19:56;;;;;;;8.68;7.53;;;;;;;-0.37;100.00;102272.03;5066962;28;20029;-74
2023/04/05 04:22:22;;;;;;;9.60;8.27;;;;;;;-0.41;100.00;102284.91;5043677;28;20035;-73
2023/04/05 04:24:48;;;;;;;9.90;7.63;;;;;;;-0.42;100.00;102288.59;5065696;28;20036;-71
2023/04/05 04:27:15;;;;;;;9.40;7.90;;;;;;;-0.44;100.00;102282.47;5065847;28;20035;-73
2023/04/05 04:29:45;;;;;;;9.77;8.15;;;;;;;-0.41;100.00;102284.06;5066591;28;20085;-73
2023/04/05 04:32:12;;;;;;;8.70;7.80;;;;;;;-0.42;100.00;102283.19;5065507;28;20051;-71
2023/04/05 04:34:43;;;;;;;8.90;7.63;;;;;;;-0.43;100.00;102286.03;5065666;28;20040;-74
2023/04/05 04:37:21;;;;;;;10.60;9.00;;;;;;;-0.43;100.00;102294.13;5063867;28;20028;-68
2023/04/05 04:39:47;;;;;;;10.10;7.70;;;;;;;-0.44;100.00;102289.72;5065936;28;20043;-70
2023/04/05 04:42:18;;;;;;;9.68;7.60;;;;;;;-0.46;100.00;102283.56;5069022;28;20107;-69
2023/04/05 04:44:47;;;;;;;9.07;8.10;;;;;;;-0.48;100.00;102294.50;5070327;28;20029;-73
2023/04/05 04:47:12;;;;;;;10.02;7.45;;;;;;;-0.49;100.00;102283.84;5066288;28;20016;-67
2023/04/05 04:49:41;;;;;;;9.15;8.13;;;;;;;-0.49;100.00;102283.84;5070617;28;20035;-72
2023/04/05 04:52:06;;;;;;;9.45;7.95;;;;;;;-0.53;100.00;102283.22;5068085;28;20028;-69
2023/04/05 04:54:35;;;;;;;8.43;7.63;;;;;;;-0.54;100.00;102286.91;5068629;28;20036;-71
2023/04/05 04:57:01;;;;;;;8.93;7.93;;;;;;;-0.57;100.00;102287.13;5067507;28;20162;-73
2023/04/05 04:59:27;;;;;;;9.20;7.53;;;;;;;-0.58;100.00;102288.97;5068848;28;20104;-72
2023/04/05 05:01:52;;;;;;;9.00;8.05;;;;;;;-0.61;100.00;102289.25;5069713;28;20178;-71
2023/04/05 05:04:17;;;;;;;8.15;7.30;;;;;;;-0.64;100.00;102283.22;5068023;28;20551;-68
2023/04/05 05:06:43;;;;;;;9.65;7.80;;;;;;;-0.64;100.00;102286.78;5068598;28;20078;-69
2023/04/05 05:09:08;;;;;;;9.48;8.30;;;;;;;-0.65;100.00;102295.84;5067552;28;20644;-72
2023/04/05 05:11:33;;;;;;;9.25;8.18;;;;;;;-0.65;100.00;102284.22;5067971;28;20029;-74
2023/04/05 05:13:59;;;;;;;9.45;8.40;;;;;;;-0.65;100.00;102285.06;5069413;28;20073;-67
2023/04/05 05:16:25;;;;;;;8.70;7.80;;;;;;;-0.63;100.00;102283.09;5067986;28;20142;-72
2023/04/05 05:18:51;;;;;;;8.82;7.82;;;;;;;-0.60;100.00;102290.09;5068276;28;20032;-68
2023/04/05 05:21:16;;;;;;;9.23;8.25;;;;;;;-0.56;100.00;102283.44;5068259;28;20028;-65
2023/04/05 05:23:41;;;;;;;8.95;8.05;;;;;;;-0.54;100.00;102290.44;5068857;28;20606;-72
2023/04/05 05:26:07;;;;;;;9.00;7.95;;;;;;;-0.53;100.00;102281.38;5050724;28;20052;-73
2023/04/05 05:28:32;;;;;;;9.77;8.35;;;;;;;-0.48;100.00;102285.53;5066245;28;20037;-73
2023/04/05 05:30:57;;;;;;;9.90;8.02;;;;;;;-0.48;100.00;102289.09;5069617;28;20103;-73
2023/04/05 05:33:24;;;;;;;10.75;8.63;;;;;;;-0.47;100.00;102279.16;5068748;28;20381;-69
2023/04/05 05:35:50;;;;;;;9.57;8.27;;;;;;;-0.44;100.00;102279.78;5068327;28;20405;-71
2023/04/05 05:38:16;;;;;;;9.90;8.45;;;;;;;-0.37;100.00;102272.03;5068165;28;20120;-71
2023/04/05 05:40:41;;;;;;;9.75;8.23;;;;;;;-0.30;100.00;102270.56;5069015;28;20020;-73
2023/04/05 05:43:06;;;;;;;9.98;8.10;;;;;;;-0.24;100.00;102275.47;5049064;28;20075;-72
2023/04/05 05:45:33;;;;;;;8.48;7.57;;;;;;;-0.23;100.00;102271.78;5068675;28;20029;-68
2023/04/05 05:47:58;;;;;;;10.02;8.20;;;;;;;-0.20;100.00;102265.25;5067537;28;20032;-71
2023/04/05 05:50:23;;;;;;;8.82;7.80;;;;;;;-0.17;100.00;102270.41;5067758;28;20024;-72
2023/04/05 05:52:48;;;;;;;9.02;7.90;;;;;;;-0.17;100.00;102273.09;5067603;28;20426;-65
2023/04/05 05:55:14;;;;;;;9.20;8.10;;;;;;;-0.11;100.00;102276.16;5068436;28;20191;-72
2023/04/05 05:57:39;;;;;;;8.65;7.47;;;;;;;-0.08;100.00;102281.31;5068694;28;20021;-72
2023/04/05 06:00:08;;;;;;;8.93;7.95;;;;;;;-0.03;100.00;102281.78;5068370;28;20029;-71
2023/04/05 06:02:33;;;;;;;8.90;7.93;;;;;;;0.03;100.00;102283.13;5066759;28;20497;-71
2023/04/05 06:05:00;;;;;;;10.05;8.90;;;;;;;0.10;100.00;102276.25;5067916;28;20025;-72
2023/04/05 06:07:26;;;;;;;9.77;8.77;;;;;;;0.16;100.00;102275.75;5068024;28;20085;-72
2023/04/05 06:09:51;;;;;;;9.65;8.65;;;;;;;0.25;100.00;102280.38;5068676;28;20020;-71
2023/04/05 06:12:17;;;;;;;9.52;7.95;;;;;;;0.34;100.00;102278.72;5067730;28;20486;-69
2023/04/05 06:14:42;;;;;;;9.90;8.65;;;;;;;0.39;100.00;102276.50;5068379;28;20374;-69
2023/04/05 06:17:07;;;;;;;9.95;8.73;;;;;;;0.47;100.00;102278.56;5067697;28;20028;-72
2023/04/05 06:19:32;;;;;;;9.90;7.93;;;;;;;0.57;100.00;102284.06;5067230;28;20086;-69
2023/04/05 06:21:59;;;;;;;9.85;8.07;;;;;;;0.69;100.00;102283.84;5065216;28;20040;-73
2023/04/05 06:24:26;;;;;;;10.13;8.50;;;;;;;0.87;100.00;102286.84;5067049;28;20028;-71
2023/04/05 06:26:51;;;;;;;9.70;8.32;;;;;;;1.14;100.00;102288.13;5068240;28;20044;-69
2023/04/05 06:29:16;;;;;;;9.40;8.40;;;;;;;1.28;100.00;102285.94;5067579;28;20125;-71
2023/04/05 06:31:42;;;;;;;8.85;7.95;;;;;;;1.39;99.78;102286.84;5068146;28;20040;-72
2023/04/05 06:34:07;;;;;;;9.23;8.30;;;;;;;1.52;99.96;102280.22;5067821;28;20028;-72
2023/04/05 06:36:33;;;;;;;9.85;8.32;;;;;;;1.91;99.50;102283.03;5067429;28;20029;-72
2023/04/05 06:38:58;;;;;;;9.10;8.10;;;;;;;2.21;97.14;102276.66;5064950;28;20070;-71
2023/04/05 06:41:24;;;;;;;10.23;8.13;;;;;;;2.42;96.49;102286.53;5067726;28;20137;-68
2023/04/05 06:43:49;;;;;;;8.65;7.75;;;;;;;2.56;96.11;102281.53;5067628;28;20435;-69
2023/04/05 06:46:15;;;;;;;9.80;7.93;;;;;;;2.62;96.92;102276.53;5066727;28;20115;-71
2023/04/05 06:48:41;;;;;;;9.57;8.10;;;;;;;2.90;95.71;102277.50;5068045;28;20577;-73
2023/04/05 06:51:06;;;;;;;9.38;7.20;;;;;;;3.23;91.45;102281.56;5066978;28;20634;-72
2023/04/05 06:53:31;;;;;;;8.95;7.72;;;;;;;3.48;89.71;102274.63;5066575;28;20097;-72
2023/04/05 06:55:58;;;;;;;8.82;7.80;;;;;;;3.53;88.73;102275.88;5065260;28;20367;-68
2023/04/05 06:58:25;;;;;;;8.05;7.15;;;;;;;3.64;89.31;102282.97;5064601;28;20035;-71
2023/04/05 07:00:50;;;;;;;8.93;8.02;;;;;;;3.78;89.13;102276.19;5066294;28;20094;-70
2023/04/05 07:03:17;;;;;;;10.13;7.75;;;;;;;3.97;81.73;102270.66;5061936;28;20028;-68
2023/04/05 07:05:52;;;;;;;10.52;7.57;;;;;;;4.06;81.63;102274.34;5064188;28;20027;-71
2023/04/05 07:08:22;;;;;;;11.68;7.95;;;;;;;4.73;81.55;102278.38;5064492;28;20028;-73
2023/04/05 07:10:48;;;;;;;8.40;7.32;;;;;;;5.27;79.66;102281.84;5065772;28;20517;-70
2023/04/05 07:13:14;;;;;;;11.57;8.25;;;;;;;5.33;77.43;102278.47;5065631;28;20371;-70
2023/04/05 07:15:40;;;;;;;9.35;7.70;;;;;;;5.34;76.91;102277.44;5064966;28;20373;-73
2023/04/05 07:18:05;;;;;;;9.27;7.68;;;;;;;5.40;76.48;102275.94;5064473;28;20117;-73
2023/04/05 07:20:30;;;;;;;9.57;8.02;;;;;;;5.57;74.73;102274.16;5061321;28;20391;-74
2023/04/05 07:22:57;;;;;;;9.07;7.30;;;;;;;6.05;73.09;102280.88;5061360;28;20434;-71
2023/04/05 07:25:22;;;;;;;10.80;7.47;;;;;;;6.42;73.17;102270.38;5063542;28;20052;-73
2023/04/05 07:27:48;;;;;;;10.15;7.72;;;;;;;7.32;73.00;102275.78;5063123;28;20477;-66
2023/04/05 07:30:13;;;;;;;9.18;7.57;;;;;;;8.26;68.02;102271.28;5061678;28;20040;-72
2023/04/05 07:32:38;;;;;;;9.88;6.95;;;;;;;9.18;62.38;102268.53;5045264;28;20020;-70
2023/04/05 07:35:04;;;;;;;8.82;7.32;;;;;;;9.99;58.71;102277.72;5061401;28;20067;-70
2023/04/05 07:37:30;;;;;;;9.77;7.47;;;;;;;11.00;56.87;102271.19;5061204;28;20043;-68
2023/04/05 07:39:57;;;;;;;9.40;6.93;;;;;;;11.30;53.94;102266.31;5063414;28;20107;-72
2023/04/05 07:42:22;;;;;;;8.93;6.32;;;;;;;11.83;52.62;102269.44;5062933;28;20044;-72
2023/04/05 07:44:47;;;;;;;9.55;6.85;;;;;;;12.77;49.76;102263.13;5062486;28;20017;-73
2023/04/05 07:47:13;;;;;;;8.80;6.30;;;;;;;13.24;45.89;102261.28;5063011;28;20039;-72
2023/04/05 07:49:38;;;;;;;8.43;6.50;;;;;;;12.44;46.04;102266.69;5060973;28;20031;-72
2023/04/05 07:52:05;;;;;;;9.95;6.40;;;;;;;11.88;49.19;102275.19;5060994;28;20417;-70
2023/04/05 07:54:32;;;;;;;9.13;6.70;;;;;;;11.29;49.31;102272.88;5061491;28;20434;-73
2023/04/05 07:56:57;;;;;;;8.60;6.35;;;;;;;11.00;48.11;102270.31;5045901;28;20033;-73
2023/04/05 07:59:23;;;;;;;8.70;6.32;;;;;;;11.10;49.39;102268.06;5062544;28;20504;-68
2023/04/05 08:01:48;;;;;;;7.93;6.28;;;;;;;11.10;50.80;102268.06;5055024;28;20032;-70
2023/04/05 08:04:14;;;;;;;11.57;7.03;;;;;;;10.99;49.05;102269.47;5055635;28;20467;-66
2023/04/05 08:06:39;;;;;;;7.88;6.90;;;;;;;10.53;50.16;102271.78;5053863;28;20038;-69
2023/04/05 08:09:05;;;;;;;10.07;6.60;;;;;;;10.49;51.00;102264.97;5063167;28;20052;-72
2023/04/05 08:11:31;;;;;;;9.25;7.00;;;;;;;10.01;51.70;102264.63;5064211;28;20028;-71
2023/04/05 08:13:56;;;;;;;10.00;7.13;;;;;;;9.82;52.74;102274.31;5045073;28;20077;-72
2023/04/05 08:16:22;;;;;;;11.65;6.68;;;;;;;9.69;52.42;102265.91;5058602;28;20053;-72
2023/04/05 08:18:47;;;;;;;9.32;6.65;;;;;;;9.50;51.70;102268.19;5064865;28;20510;-73
2023/04/05 08:21:12;;;;;;;9.77;6.95;;;;;;;9.47;54.04;102265.78;5059017;28;20025;-67
2023/04/05 08:23:38;;;;;;;9.35;7.00;;;;;;;9.60;53.56;102270.63;5059945;28;20432;-69
2023/04/05 08:26:03;;;;;;;9.98;6.93;;;;;;;9.74;50.16;102267.03;5064476;28;20024;-73
2023/04/05 08:28:28;;;;;;;9.52;6.82;;;;;;;9.47;50.82;102274.03;5060752;28;20110;-73
2023/04/05 08:30:55;;;;;;;10.27;6.80;;;;;;;9.58;54.05;102273.59;5058428;28;20020;-68
2023/04/05 08:33:20;;;;;;;9.15;6.97;;;;;;;9.67;54.12;102273.47;5053273;28;20046;-72
2023/04/05 08:35:45;;;;;;;8.20;6.40;;;;;;;9.99;52.37;102266.72;5060942;28;20494;-73
2023/04/05 08:38:11;;;;;;;8.85;6.47;;;;;;;10.48;51.90;102266.88;5063544;28;20079;-68
2023/04/05 08:40:45;;;;;;;8.38;6.20;;;;;;;11.28;49.08;102262.94;5065516;28;20453;-75
2023/04/05 08:43:24;;;;;;;7.90;6.68;;;;;;;12.79;47.51;102255.50;5046725;28;20074;-71
2023/04/05 08:45:51;;;;;;;8.25;6.53;;;;;;;13.91;41.93;102256.41;5066044;28;20028;-74
2023/04/05 08:48:18;;;;;;;9.15;6.38;;;;;;;14.99;41.09;102251.72;5049759;28;20048;-68
2023/04/05 08:50:54;;;;;;;7.18;5.90;;;;;;;14.89;40.06;102256.91;5063822;28;20481;-66
2023/04/05 08:53:20;;;;;;;7.97;5.85;;;;;;;14.72;37.59;102259.41;5054969;28;20179;-74
2023/04/05 08:55:50;;;;;;;7.75;5.70;;;;;;;14.90;37.06;102255.88;5046810;28;20499;-69
2023/04/05 08:58:17;;;;;;;7.78;5.50;;;;;;;15.52;33.40;102251.22;5048123;28;20035;-72
2023/04/05 09:00:43;;;;;;;7.68;6.10;;;;;;;15.94;36.34;102248.63;5065156;28;20143;-74
2023/04/05 09:03:17;;;;;;;8.15;6.30;;;;;;;17.32;35.43;102247.59;5062392;28;20024;-68
2023/04/05 09:05:49;;;;;;;8.15;5.78;;;;;;;18.91;30.71;102252.56;5054495;28;20032;-68
2023/04/05 09:08:15;;;;;;;7.53;5.65;;;;;;;19.61;28.31;102250.31;5062080;28;20025;-72
2023/04/05 09:10:41;;;;;;;7.55;5.50;;;;;;;20.32;27.69;102242.84;5064618;28;20055;-66
2023/04/05 09:13:07;;;;;;;6.63;5.32;;;;;;;20.84;25.61;102242.28;5061300;28;20367;-67
2023/04/05 09:15:34;;;;;;;6.57;4.93;;;;;;;21.32;25.15;102240.44;5059768;28;20040;-70
2023/04/05 09:17:59;;;;;;;7.10;5.32;;;;;;;21.22;25.81;102238.41;5061984;28;20532;-63
2023/04/05 09:20:25;;;;;;;7.45;5.55;;;;;;;21.45;25.56;102233.56;5062512;28;20937;-71
2023/04/05 09:22:50;;;;;;;6.72;5.07;;;;;;;21.99;24.25;102236.88;5063433;28;20090;-75
2023/04/05 09:25:32;;;;;;;6.93;5.40;;;;;;;22.39;26.96;102240.97;5062901;28;20099;-73
2023/04/05 09:27:58;;;;;;;7.28;5.00;;;;;;;22.63;23.53;102237.66;5059946;28;20028;-69
2023/04/05 09:30:26;;;;;;;6.40;4.90;;;;;;;22.68;25.68;102238.50;5058651;28;20087;-64
2023/04/05 09:32:53;;;;;;;;;;;;;;;23.67;26.96;102230.63;5066961;28;20032;-72
2023/04/05 09:35:21;;;;;;;8.77;5.00;;;;;;;22.10;21.70;102235.00;5067818;28;19916;-70
2023/04/05 09:37:54;;;;;;;6.15;4.75;;;;;;;21.16;25.95;102227.47;5043823;28;20029;-64
2023/04/05 09:40:19;;;;;;;6.55;4.97;;;;;;;21.19;23.96;102230.56;5068248;28;20048;-68
2023/04/05 09:42:45;;;;;;;7.00;5.63;;;;;;;21.73;22.48;102233.13;5053481;28;20387;-68
2023/04/05 09:45:11;;;;;;;5.72;4.97;;;;;;;21.43;22.20;102225.44;5060187;28;20037;-72
2023/04/05 09:47:37;;;;;;;6.25;5.07;;;;;;;21.70;22.66;102233.72;5064755;28;20159;-72
2023/04/05 09:50:14;;;;;;;6.80;4.88;;;;;;;21.10;23.40;102229.38;5061239;28;20020;-67
2023/04/05 09:52:39;;;;;;;6.28;4.70;;;;;;;20.68;22.07;102232.06;5061944;28;20045;-72
2023/04/05 09:55:06;;;;;;;6.07;4.70;;;;;;;20.36;23.92;102223.63;5064745;28;20319;-72
2023/04/05 09:57:36;;;;;;;6.18;4.40;;;;;;;21.03;23.58;102217.56;5061982;28;20036;-69
2023/04/05 10:00:04;;;;;;;6.78;3.90;;;;;;;20.51;21.98;102220.19;5065609;28;20031;-70
2023/04/05 10:02:38;;;;;;;5.78;4.03;;;;;;;20.20;23.32;102220.69;5063609;28;20139;-71
2023/04/05 10:05:10;;;;;;;6.53;4.50;;;;;;;21.02;22.03;102212.25;5068408;28;20108;-73
2023/04/05 10:07:36;;;;;;;6.28;4.78;;;;;;;21.11;23.66;102214.28;5065292;28;20032;-64
2023/04/05 10:10:03;;;;;;;5.97;4.50;;;;;;;21.73;21.22;102212.72;5064590;28;20522;-73
2023/04/05 10:12:29;;;;;;;6.40;5.00;;;;;;;21.91;19.72;102211.41;5061980;28;20059;-65
2023/04/05 10:14:55;;;;;;;5.57;4.70;;;;;;;22.70;21.33;102202.63;5064277;28;20530;-71
2023/04/05 10:17:37;;;;;;;6.35;4.90;;;;;;;22.77;22.01;102206.03;5065818;28;20039;-73
2023/04/05 10:20:15;;;;;;;5.57;4.55;;;;;;;22.54;22.28;102200.97;5063285;28;20052;-72
2023/04/05 10:23:11;;;;;;;6.15;5.00;;;;;;;23.54;23.26;102197.53;5063402;28;20470;-69
2023/04/05 10:25:53;;;;;;;5.95;4.63;;;;;;;23.75;19.80;102192.72;5066312;28;20030;-66
2023/04/05 10:28:35;;;;;;;6.07;4.97;;;;;;;23.81;21.16;102185.94;5060436;28;20032;-67
2023/04/05 10:31:25;;;;;;;6.72;4.43;;;;;;;24.51;20.36;102186.66;5061878;28;20040;-73
2023/04/05 10:34:02;;;;;;;6.93;4.30;;;;;;;24.75;21.24;102186.75;5066512;28;20071;-64
2023/04/05 10:36:49;;;;;;;6.38;4.35;;;;;;;24.82;19.71;102183.59;5067773;28;20178;-62
2023/04/05 10:39:39;;;;;;;5.95;4.10;;;;;;;23.61;19.90;102184.03;5064366;28;20104;-69
2023/04/05 10:42:17;;;;;;;5.53;4.25;;;;;;;23.54;20.88;102184.34;5066599;28;20179;-72
2023/04/05 10:44:44;;;;;;;5.80;4.47;;;;;;;22.63;19.01;102178.84;5066154;28;20028;-74
2023/04/05 10:47:14;;;;;;;5.40;4.15;;;;;;;22.97;19.60;102181.97;5066347;28;20055;-75
2023/04/05 10:49:45;;;;;;;5.55;4.50;;;;;;;23.63;20.81;102180.94;5065728;28;20016;-73
2023/04/05 10:52:10;;;;;;;5.30;3.72;;;;;;;23.58;20.72;102184.63;5065659;28;20031;-70
2023/04/05 10:54:37;;;;;;;4.85;3.85;;;;;;;23.40;17.77;102171.19;5049106;28;20124;-70
2023/04/05 10:57:05;;;;;;;4.90;3.75;;;;;;;23.32;20.34;102172.66;5067985;28;20098;-69
2023/04/05 10:59:32;;;;;;;6.22;4.00;;;;;;;23.34;17.55;102170.38;5066777;28;20391;-69
2023/04/05 11:01:57;;;;;;;6.05;3.40;;;;;;;22.63;18.34;102168.47;5066215;28;20047;-70
2023/04/05 11:04:23;;;;;;;4.95;4.10;;;;;;;21.26;20.33;102154.88;5062723;28;20606;-67
2023/04/05 11:07:14;;;;;;;6.25;4.30;;;;;;;22.53;20.74;102152.53;5066735;28;20071;-66
2023/04/05 11:10:00;;;;;;;5.68;4.38;;;;;;;23.45;18.89;102145.94;5067528;28;20032;-74
2023/04/05 11:12:48;;;;;;;5.53;4.30;;;;;;;23.85;20.43;102156.19;5060966;28;20028;-74
2023/04/05 11:15:31;;;;;;;5.78;4.28;;;;;;;24.18;18.53;102157.41;5061857;28;20056;-66
2023/04/05 11:18:24;;;;;;;6.35;4.10;;;;;;;24.32;19.85;102149.97;5061512;28;20063;-69
2023/04/05 11:20:54;;;;;;;5.88;4.20;;;;;;;25.00;20.07;102151.13;5049853;28;20053;-68
2023/04/05 11:23:21;;;;;;;5.85;3.95;;;;;;;22.72;18.36;102157.56;5066365;28;20028;-72
2023/04/05 11:25:53;;;;;;;5.65;4.40;;;;;;;22.54;19.82;102154.19;5056593;28;20487;-75
2023/04/05 11:28:29;;;;;;;6.05;4.18;;;;;;;22.88;20.56;102144.38;5043148;28;20082;-73
2023/04/05 11:30:58;;;;;;;5.90;4.65;;;;;;;22.36;18.88;102137.97;5046018;28;20082;-73